createdAt,value
2023-04-02T00:00:28.625Z,21.35
2023-04-02T00:03:35.288Z,19.30
2023-04-02T00:06:49.688Z,12.98
2023-04-02T00:09:54.704Z,18.25
2023-04-02T00:13:22.165Z,14.55
2023-04-02T00:16:30.386Z,15.32
2023-04-02T00:19:40.423Z,15.65
2023-04-02T00:22:46.248Z,21.40
2023-04-02T00:25:54.239Z,17.10
2023-04-02T00:28:59.628Z,12.73
2023-04-02T00:32:08.580Z,12.65
2023-04-02T00:35:14.160Z,14.15
2023-04-02T00:38:20.145Z,20.23
2023-04-02T00:41:36.457Z,10.80
2023-04-02T00:44:41.417Z,17.48
2023-04-02T00:47:51.619Z,16.90
2023-04-02T00:50:57.022Z,10.28
2023-04-02T00:54:02.692Z,10.88
2023-04-02T00:57:09.992Z,15.75
2023-04-02T01:00:43.144Z,14.00
2023-04-02T01:03:51.071Z,14.95
2023-04-02T01:06:58.225Z,15.65
2023-04-02T01:10:30.395Z,14.78
2023-04-02T01:14:07.044Z,12.55
2023-04-02T01:17:56.513Z,18.12
2023-04-02T01:21:38.587Z,16.65
2023-04-02T01:24:46.585Z,17.25
2023-04-02T01:27:59.820Z,17.10
2023-04-02T01:31:08.915Z,17.98
2023-04-02T01:34:13.900Z,17.35
2023-04-02T01:37:56.410Z,10.80
2023-04-02T01:41:08.067Z,11.95
2023-04-02T01:44:30.168Z,11.12
2023-04-02T01:47:37.906Z,13.58
2023-04-02T01:50:45.891Z,13.45
2023-04-02T01:53:33.776Z,18.73
2023-04-02T01:56:26.469Z,10.80
2023-04-02T01:59:22.637Z,12.63
2023-04-02T02:02:30.265Z,15.60
2023-04-02T02:05:37.775Z,15.60
2023-04-02T02:09:02.396Z,14.35
2023-04-02T02:12:09.755Z,13.43
2023-04-02T02:15:16.152Z,12.93
2023-04-02T02:18:22.587Z,14.65
2023-04-02T02:21:29.153Z,8.28
2023-04-02T02:24:40.291Z,12.53
2023-04-02T02:27:50.597Z,15.13
2023-04-02T02:31:07.772Z,14.80
2023-04-02T02:34:23.507Z,10.03
2023-04-02T02:37:42.222Z,10.60
2023-04-02T02:40:55.738Z,10.58
2023-04-02T02:43:59.962Z,7.28
2023-04-02T02:47:04.823Z,17.10
2023-04-02T02:53:20.797Z,6.25
2023-04-02T02:56:28.672Z,12.43
2023-04-02T02:59:34.259Z,9.20
2023-04-02T03:02:41.521Z,11.18
2023-04-02T03:05:47.809Z,16.90
2023-04-02T03:09:19.045Z,8.83
2023-04-02T03:13:06.928Z,10.43
2023-04-02T03:16:34.816Z,9.70
2023-04-02T03:19:38.379Z,9.78
2023-04-02T03:22:29.963Z,9.30
2023-04-02T03:25:44.806Z,7.40
2023-04-02T03:28:44.494Z,9.60
2023-04-02T03:32:16.179Z,7.05
2023-04-02T03:35:35.125Z,8.03
2023-04-02T03:39:03.114Z,5.83
2023-04-02T03:42:32.415Z,7.70
2023-04-02T03:45:41.560Z,6.92
2023-04-02T03:49:01.385Z,7.78
2023-04-02T03:52:21.621Z,15.30
2023-04-02T03:55:37.089Z,37.15
2023-04-02T03:59:02.522Z,42.23
2023-04-02T04:02:41.736Z,46.88
2023-04-02T04:05:55.188Z,36.93
2023-04-02T04:09:09.027Z,46.92
2023-04-02T04:12:38.103Z,46.70
2023-04-02T04:16:03.144Z,40.15
2023-04-02T04:19:19.771Z,45.83
2023-04-02T04:22:40.472Z,49.03
2023-04-02T04:25:48.495Z,40.38
2023-04-02T04:29:35.032Z,35.50
2023-04-02T04:32:45.331Z,32.10
2023-04-02T04:36:03.168Z,29.90
2023-04-02T04:39:08.027Z,32.30
2023-04-02T04:42:15.974Z,33.50
2023-04-02T04:45:45.140Z,40.35
2023-04-02T04:52:37.707Z,40.70
2023-04-02T04:55:53.732Z,41.98
2023-04-02T04:59:25.763Z,35.50
2023-04-02T05:02:24.231Z,26.05
2023-04-02T05:05:34.506Z,16.20
2023-04-02T05:08:44.106Z,14.35
2023-04-02T05:11:56.341Z,10.40
2023-04-02T05:15:22.394Z,4.78
2023-04-02T05:18:55.780Z,8.10
2023-04-02T05:22:14.431Z,4.80
2023-04-02T05:25:35.465Z,8.10
2023-04-02T05:28:59.505Z,7.10
2023-04-02T05:32:31.437Z,6.47
2023-04-02T05:35:40.287Z,4.62
2023-04-02T05:38:48.673Z,9.58
2023-04-02T05:45:43.571Z,8.78
2023-04-02T05:48:55.083Z,7.40
2023-04-02T05:51:58.367Z,7.67
2023-04-02T05:55:34.349Z,12.50
2023-04-02T05:59:02.886Z,8.60
2023-04-02T06:02:18.097Z,11.73
2023-04-02T06:05:30.216Z,12.88
2023-04-02T06:08:42.649Z,15.38
2023-04-02T06:11:54.063Z,15.28
2023-04-02T06:15:01.460Z,16.40
2023-04-02T06:18:09.974Z,18.23
2023-04-02T06:21:16.992Z,16.27
2023-04-02T06:24:25.380Z,15.20
2023-04-02T06:27:31.768Z,21.97
2023-04-02T06:30:43.757Z,27.42
2023-04-02T06:33:51.859Z,26.45
2023-04-02T06:36:59.643Z,29.42
2023-04-02T06:40:07.360Z,38.48
2023-04-02T06:43:14.231Z,37.95
2023-04-02T06:46:35.539Z,37.83
2023-04-02T06:49:55.062Z,38.38
2023-04-02T06:53:06.381Z,33.58
2023-04-02T06:56:38.387Z,32.48
2023-04-02T06:59:46.581Z,36.58
2023-04-02T07:02:55.240Z,37.33
2023-04-02T07:06:01.095Z,42.10
2023-04-02T07:09:07.749Z,29.75
2023-04-02T07:12:16.582Z,24.10
2023-04-02T07:15:26.738Z,17.80
2023-04-02T07:18:46.801Z,12.58
2023-04-02T07:21:53.263Z,8.60
2023-04-02T07:25:00.208Z,6.45
2023-04-02T07:28:08.641Z,7.90
2023-04-02T07:31:14.465Z,5.35
2023-04-02T07:34:20.719Z,2.92
2023-04-02T07:37:28.056Z,4.85
2023-04-02T07:40:35.310Z,2.47
2023-04-02T07:43:42.623Z,2.20
2023-04-02T07:46:41.161Z,1.92
2023-04-02T07:49:47.319Z,3.58
2023-04-02T07:52:59.192Z,4.80
2023-04-02T07:56:08.469Z,5.62
2023-04-02T07:59:13.552Z,4.15
2023-04-02T08:02:19.353Z,3.98
2023-04-02T08:05:25.751Z,8.53
2023-04-02T08:08:32.098Z,7.80
2023-04-02T08:11:37.759Z,3.75
2023-04-02T08:14:45.729Z,6.62
2023-04-02T08:17:51.651Z,5.12
2023-04-02T08:20:57.847Z,1.82
2023-04-02T08:24:03.827Z,2.85
2023-04-02T08:27:11.698Z,3.75
2023-04-02T08:30:17.869Z,4.15
2023-04-02T08:33:25.039Z,5.33
2023-04-02T08:36:33.080Z,8.38
2023-04-02T08:39:41.564Z,25.20
2023-04-02T08:43:18.229Z,24.00
2023-04-02T08:46:35.810Z,18.95
2023-04-02T08:49:59.078Z,23.22
2023-04-02T08:53:04.940Z,26.95
2023-04-02T08:56:36.268Z,21.45
2023-04-02T08:59:48.487Z,20.90
2023-04-02T09:03:01.171Z,14.65
2023-04-02T09:06:07.472Z,9.43
2023-04-02T09:09:13.724Z,14.63
2023-04-02T09:12:19.348Z,18.48
2023-04-02T09:15:38.553Z,16.48
2023-04-02T09:18:45.413Z,19.40
2023-04-02T09:21:58.080Z,23.10
2023-04-02T09:25:11.786Z,47.80
2023-04-02T09:28:18.449Z,23.00
2023-04-02T09:31:52.251Z,51.25
2023-04-02T09:34:58.930Z,8.88
2023-04-02T09:38:31.632Z,6.58
2023-04-02T09:41:38.407Z,6.55
2023-04-02T09:44:44.175Z,6.65
2023-04-02T09:47:50.507Z,3.90
2023-04-02T09:50:57.509Z,5.17
2023-04-02T09:54:04.056Z,4.72
2023-04-02T09:57:17.883Z,3.35
2023-04-02T10:00:37.862Z,4.25
2023-04-02T10:03:48.294Z,7.53
2023-04-02T10:06:55.825Z,3.40
2023-04-02T10:10:01.306Z,4.40
2023-04-02T10:13:28.323Z,3.08
2023-04-02T10:16:45.961Z,3.42
2023-04-02T10:19:57.317Z,3.25
2023-04-02T10:23:04.934Z,3.75
2023-04-02T10:26:29.176Z,3.02
2023-04-02T10:29:42.593Z,4.12
2023-04-02T10:33:14.783Z,2.98
2023-04-02T10:36:24.414Z,2.70
2023-04-02T10:39:45.191Z,3.42
2023-04-02T10:42:58.260Z,5.42
2023-04-02T10:46:13.040Z,2.92
2023-04-02T10:49:40.777Z,4.62
2023-04-02T10:52:42.835Z,6.40
2023-04-02T10:55:33.299Z,4.58
2023-04-02T10:58:36.210Z,2.75
2023-04-02T11:01:39.928Z,5.40
2023-04-02T11:05:01.265Z,9.13
2023-04-02T11:08:14.569Z,5.45
2023-04-02T11:11:32.842Z,6.20
2023-04-02T11:14:44.007Z,10.68
2023-04-02T11:17:50.594Z,8.83
2023-04-02T11:21:17.210Z,8.88
2023-04-02T11:24:40.310Z,8.55
2023-04-02T11:27:47.269Z,11.97
2023-04-02T11:30:53.343Z,5.03
2023-04-02T11:33:59.143Z,4.78
2023-04-02T11:37:13.422Z,9.68
2023-04-02T11:40:22.861Z,10.88
2023-04-02T11:43:51.868Z,4.70
2023-04-02T11:46:57.912Z,4.60
2023-04-02T11:50:13.911Z,3.25
2023-04-02T11:53:28.173Z,10.43
2023-04-02T11:56:53.344Z,2.37
2023-04-02T12:00:06.228Z,3.75
2023-04-02T12:03:39.724Z,1.87
2023-04-02T12:07:04.072Z,3.92
2023-04-02T12:10:14.376Z,2.70
2023-04-02T12:13:24.000Z,2.05
2023-04-02T12:16:28.910Z,2.30
2023-04-02T12:19:37.727Z,3.22
2023-04-02T12:22:48.715Z,4.37
2023-04-02T12:25:56.169Z,2.55
2023-04-02T12:29:02.582Z,4.97
2023-04-02T12:32:11.290Z,3.20
2023-04-02T12:35:16.175Z,4.85
2023-04-02T12:38:40.678Z,5.12
2023-04-02T12:41:47.478Z,4.22
2023-04-02T12:44:53.503Z,3.85
2023-04-02T12:48:02.577Z,6.58
2023-04-02T12:51:07.692Z,3.75
2023-04-02T12:54:13.423Z,4.17
2023-04-02T12:57:42.761Z,7.92
2023-04-02T13:00:50.559Z,6.58
2023-04-02T13:03:57.241Z,11.15
2023-04-02T13:07:07.744Z,23.90
2023-04-02T13:10:19.118Z,10.82
2023-04-02T13:13:32.091Z,9.38
2023-04-02T13:16:51.275Z,4.60
2023-04-02T13:19:57.072Z,4.95
2023-04-02T13:23:03.792Z,5.35
2023-04-02T13:26:11.896Z,3.50
2023-04-02T13:29:39.349Z,5.00
2023-04-02T13:32:46.158Z,3.47
2023-04-02T13:35:53.593Z,2.40
2023-04-02T13:39:00.122Z,3.58
2023-04-02T13:42:14.917Z,4.50
2023-04-02T13:45:20.960Z,3.40
2023-04-02T13:48:32.093Z,2.77
2023-04-02T13:51:54.635Z,3.65
2023-04-02T13:55:08.046Z,3.12
2023-04-02T13:58:13.872Z,3.27
2023-04-02T14:01:20.806Z,4.92
2023-04-02T14:04:28.534Z,4.72
2023-04-02T14:08:02.456Z,2.17
2023-04-02T14:11:35.282Z,3.52
2023-04-02T14:15:07.440Z,7.70
2023-04-02T14:18:39.567Z,5.37
2023-04-02T14:21:51.958Z,6.37
2023-04-02T14:25:21.503Z,13.60
2023-04-02T14:28:49.724Z,8.05
2023-04-02T14:32:14.352Z,10.00
2023-04-02T14:35:39.563Z,13.20
2023-04-02T14:39:01.666Z,7.37
2023-04-02T14:42:13.084Z,11.10
2023-04-02T14:45:41.534Z,17.25
2023-04-02T14:49:26.109Z,11.38
2023-04-02T14:52:34.806Z,12.18
2023-04-02T14:55:53.342Z,12.67
2023-04-02T14:59:03.608Z,18.65
2023-04-02T15:02:39.591Z,26.37
2023-04-02T15:06:09.305Z,34.45
2023-04-02T15:09:21.874Z,36.98
2023-04-02T15:12:37.121Z,72.22
2023-04-02T15:16:11.867Z,95.97
2023-04-02T15:19:18.538Z,109.95
2023-04-02T15:22:54.018Z,99.60
2023-04-02T15:26:05.120Z,74.10
2023-04-02T15:29:34.872Z,42.78
2023-04-02T15:32:55.703Z,25.68
2023-04-02T15:36:05.009Z,18.37
2023-04-02T15:39:14.703Z,21.15
2023-04-02T15:46:17.129Z,15.53
2023-04-02T15:49:43.519Z,17.62
2023-04-02T15:53:02.062Z,21.60
2023-04-02T15:56:32.248Z,14.20
2023-04-02T16:00:18.401Z,13.88
2023-04-02T16:03:49.796Z,13.98
2023-04-02T16:07:10.318Z,15.45
2023-04-02T16:10:41.263Z,15.32
2023-04-02T16:13:51.490Z,19.30
2023-04-02T16:16:57.377Z,14.00
2023-04-02T16:20:07.499Z,16.27
2023-04-02T16:23:21.273Z,14.00
2023-04-02T16:26:55.530Z,15.65
2023-04-02T16:30:26.417Z,20.97
2023-04-02T16:33:46.935Z,19.52
2023-04-02T16:37:28.593Z,23.80
2023-04-02T16:41:07.529Z,22.82
2023-04-02T16:44:31.839Z,18.80
2023-04-02T16:48:23.679Z,23.73
2023-04-02T16:51:56.172Z,22.65
2023-04-02T16:55:11.197Z,21.87
2023-04-02T16:58:46.048Z,18.80
2023-04-02T17:02:33.476Z,22.87
2023-04-02T17:05:49.946Z,20.82
2023-04-02T17:09:38.996Z,18.92
2023-04-02T17:13:08.493Z,18.60
2023-04-02T17:16:22.464Z,15.95
2023-04-02T17:19:30.464Z,17.30
2023-04-02T17:22:35.884Z,15.38
2023-04-02T17:25:51.315Z,20.35
2023-04-02T17:28:57.182Z,16.65
2023-04-02T17:32:03.362Z,16.87
2023-04-02T17:35:10.837Z,17.20
2023-04-02T17:38:30.286Z,19.55
2023-04-02T17:41:40.483Z,13.32
2023-04-02T17:45:09.087Z,17.20
2023-04-02T17:48:24.647Z,29.23
2023-04-02T17:51:50.618Z,16.48
2023-04-02T17:55:11.781Z,20.02
2023-04-02T17:58:53.309Z,16.27
2023-04-02T18:02:35.850Z,14.80
2023-04-02T18:05:49.605Z,16.05
2023-04-02T18:09:54.004Z,15.48
2023-04-02T18:13:11.751Z,11.68
2023-04-02T18:16:38.753Z,12.15
2023-04-02T18:19:50.498Z,12.68
2023-04-02T18:23:04.159Z,20.37
2023-04-02T18:26:45.924Z,15.05
2023-04-02T18:33:39.656Z,12.10
2023-04-02T18:37:22.117Z,15.83
2023-04-02T18:40:33.520Z,13.20
2023-04-02T18:43:49.722Z,16.00
2023-04-02T18:47:07.085Z,13.20
2023-04-02T18:50:26.669Z,17.60
2023-04-02T18:56:39.157Z,17.10
2023-04-02T19:00:14.925Z,26.07
2023-04-02T19:03:28.001Z,16.30
2023-04-02T19:06:41.251Z,16.73
2023-04-02T19:09:56.026Z,16.55
2023-04-02T19:13:02.564Z,16.57
2023-04-02T19:16:13.296Z,16.48
2023-04-02T19:19:43.468Z,16.73
2023-04-02T19:23:19.784Z,13.70
2023-04-02T19:26:33.501Z,14.75
2023-04-02T19:29:43.913Z,14.28
2023-04-02T19:33:39.467Z,14.10
2023-04-02T19:37:07.671Z,11.63
2023-04-02T19:40:59.900Z,12.05
2023-04-02T19:44:05.868Z,15.75
2023-04-02T19:47:10.243Z,13.30
2023-04-02T19:50:16.248Z,13.60
2023-04-02T19:53:22.778Z,14.50
2023-04-02T19:56:29.234Z,21.20
2023-04-02T19:59:34.771Z,17.30
2023-04-02T20:02:40.746Z,18.87
2023-04-02T20:05:46.739Z,18.55
2023-04-02T20:08:53.292Z,15.85
2023-04-02T20:11:58.898Z,16.62
2023-04-02T20:15:04.590Z,17.80
2023-04-02T20:18:10.938Z,19.73
2023-04-02T20:21:21.898Z,18.90
2023-04-02T20:24:27.129Z,29.98
2023-04-02T20:27:33.024Z,23.95
2023-04-02T20:30:39.742Z,22.90
2023-04-02T20:33:38.691Z,26.35
2023-04-02T20:36:37.468Z,24.85
2023-04-02T20:39:44.244Z,31.77
2023-04-02T20:42:49.785Z,14.47
2023-04-02T20:45:56.608Z,13.43
2023-04-02T20:49:02.729Z,15.93
2023-04-02T20:52:09.358Z,16.60
2023-04-02T20:55:14.917Z,23.98
2023-04-02T20:58:20.431Z,26.87
2023-04-02T21:01:41.400Z,27.37
2023-04-02T21:04:47.798Z,27.80
2023-04-02T21:07:55.324Z,22.10
2023-04-02T21:11:01.921Z,13.35
2023-04-02T21:14:08.587Z,17.10
2023-04-02T21:17:14.210Z,20.55
2023-04-02T21:20:21.452Z,26.05
2023-04-02T21:23:27.365Z,22.93
2023-04-02T21:26:34.829Z,22.20
2023-04-02T21:29:40.701Z,23.38
2023-04-02T21:32:47.310Z,28.80
2023-04-02T21:35:52.965Z,23.12
2023-04-02T21:39:07.862Z,20.72
2023-04-02T21:42:14.707Z,27.22
2023-04-02T21:45:21.646Z,28.23
2023-04-02T21:48:27.951Z,24.35
2023-04-02T21:51:38.508Z,22.50
2023-04-02T21:54:38.552Z,28.65
2023-04-02T21:57:44.264Z,22.82
2023-04-02T22:00:49.107Z,24.25
2023-04-02T22:03:55.412Z,19.85
2023-04-02T22:07:01.768Z,21.25
2023-04-02T22:10:08.594Z,15.05
2023-04-02T22:13:15.271Z,18.35
2023-04-02T22:16:24.424Z,17.92
2023-04-02T22:19:24.334Z,23.12
2023-04-02T22:22:17.704Z,18.82
2023-04-02T22:25:24.606Z,22.25
2023-04-02T22:28:29.993Z,18.05
2023-04-02T22:31:37.753Z,25.05
2023-04-02T22:34:46.381Z,18.17
2023-04-02T22:37:51.634Z,18.70
2023-04-02T22:40:58.718Z,25.08
2023-04-02T22:44:04.504Z,18.48
2023-04-02T22:47:10.787Z,16.73
2023-04-02T22:50:16.489Z,20.37
2023-04-02T22:53:21.825Z,23.95
2023-04-02T22:56:31.631Z,20.20
2023-04-02T22:59:37.020Z,22.15
2023-04-02T23:02:37.156Z,16.17
2023-04-02T23:05:43.815Z,28.52
2023-04-02T23:08:50.054Z,21.73
2023-04-02T23:11:56.518Z,26.62
2023-04-02T23:15:05.289Z,21.00
2023-04-02T23:21:17.397Z,26.73
2023-04-02T23:24:26.546Z,35.98
2023-04-02T23:27:31.583Z,35.17
2023-04-02T23:30:38.508Z,27.50
2023-04-02T23:33:39.015Z,20.88
2023-04-02T23:36:48.749Z,30.27
2023-04-02T23:39:55.648Z,30.75
2023-04-02T23:43:01.465Z,21.40
2023-04-02T23:46:08.303Z,23.10
2023-04-02T23:49:16.768Z,19.30
2023-04-02T23:52:22.435Z,16.62
2023-04-02T23:55:28.241Z,15.28
2023-04-02T23:58:34.897Z,16.27
